Time;durP1;ratioP1;P1;durP2;ratioP2;P2;SDS_P1;SDS_P2;PMS_P1;PMS_P2;Temp;Humidity;BMP_temperature;BMP_pressure;BME280_temperature;BME280_humidity;BME280_pressure;Samples;Min_cycle;Max_cycle;Signal;HPM_P1;HPM_P2
2023/04/01 00:00:22;;;;;;;0.00;0.00;;;10.10;99.90;;;;;;5032150;28;20064;-82
2023/04/01 00:02:48;;;;;;;0.00;0.00;;;10.00;99.90;;;;;;5017088;28;20118;-83
2023/04/01 00:05:14;;;;;;;0.00;0.00;;;10.00;99.90;;;;;;5032515;28;20144;-83
2023/04/01 00:07:40;;;;;;;0.00;0.00;;;10.00;99.90;;;;;;5017030;28;20049;-83
2023/04/01 00:10:07;;;;;;;0.00;0.00;;;10.00;99.90;;;;;;5019729;28;20048;-83
2023/04/01 00:12:33;;;;;;;0.00;0.00;;;10.00;99.90;;;;;;5036842;28;20052;-83
2023/04/01 00:14:59;;;;;;;0.00;0.00;;;10.00;99.90;;;;;;5036714;28;20057;-82
2023/04/01 00:17:25;;;;;;;0.00;0.00;;;10.00;99.90;;;;;;5036349;28;20045;-81
2023/04/01 00:19:51;;;;;;;0.00;0.00;;;10.00;99.90;;;;;;5020323;28;20627;-81
2023/04/01 00:22:17;;;;;;;0.57;0.25;;;10.00;99.90;;;;;;5020616;28;20136;-81
2023/04/01 00:24:43;;;;;;;0.00;0.00;;;10.00;99.90;;;;;;5020104;28;20042;-81
2023/04/01 00:27:08;;;;;;;0.00;0.00;;;10.00;99.90;;;;;;5019698;28;20068;-81
2023/04/01 00:29:34;;;;;;;0.00;0.00;;;10.00;99.90;;;;;;5036318;28;20088;-81
2023/04/01 00:32:00;;;;;;;0.00;0.00;;;10.00;99.90;;;;;;5019456;28;20049;-81
2023/04/01 00:34:26;;;;;;;0.00;0.00;;;9.90;99.90;;;;;;5036464;28;20474;-81
2023/04/01 00:36:52;;;;;;;0.00;0.00;;;9.90;99.90;;;;;;5020593;28;20136;-81
2023/04/01 00:39:19;;;;;;;0.00;0.00;;;9.90;99.90;;;;;;5036150;28;20152;-82
2023/04/01 00:41:45;;;;;;;0.00;0.00;;;9.90;99.90;;;;;;5037712;28;20053;-82
2023/04/01 00:44:24;;;;;;;0.00;0.00;;;9.90;99.90;;;;;;5035869;28;20046;-83
2023/04/01 00:46:50;;;;;;;0.00;0.00;;;9.90;99.90;;;;;;5019731;28;20400;-82
2023/04/01 00:49:18;;;;;;;0.88;0.55;;;9.90;99.90;;;;;;5019326;28;20051;-83
2023/04/01 00:51:47;;;;;;;0.00;0.00;;;9.90;99.90;;;;;;5035613;28;20046;-83
2023/04/01 00:54:15;;;;;;;0.08;0.08;;;9.90;99.90;;;;;;5035667;28;20100;-83
2023/04/01 00:56:56;;;;;;;0.00;0.00;;;9.90;99.90;;;;;;5036727;28;20477;-82
2023/04/01 00:59:35;;;;;;;0.00;0.00;;;9.90;99.90;;;;;;5019985;28;20061;-82
2023/04/01 01:02:05;;;;;;;0.95;0.30;;;10.00;99.90;;;;;;5035382;28;20128;-82
2023/04/01 01:04:34;;;;;;;0.00;0.00;;;9.90;99.90;;;;;;5035388;28;20481;-82
2023/04/01 01:07:21;;;;;;;0.05;0.00;;;10.00;99.90;;;;;;5035421;28;20095;-82
2023/04/01 01:09:59;;;;;;;0.00;0.00;;;10.00;99.90;;;;;;5019638;28;20452;-82
2023/04/01 01:12:44;;;;;;;0.00;0.00;;;9.90;99.90;;;;;;5035492;28;20564;-83
2023/04/01 01:15:13;;;;;;;;;;;10.00;99.90;;;;;;5036169;28;20388;-82
2023/04/01 01:17:50;;;;;;;0.00;0.00;;;9.90;99.90;;;;;;5036386;28;20272;-82
2023/04/01 01:20:40;;;;;;;0.00;0.00;;;10.00;99.90;;;;;;5034462;28;20046;-81
2023/04/01 01:23:37;;;;;;;0.20;0.20;;;9.90;99.90;;;;;;5018841;28;20088;-81
2023/04/01 01:26:41;;;;;;;0.00;0.00;;;9.90;99.90;;;;;;5035143;28;20481;-81
2023/04/01 01:29:25;;;;;;;0.00;0.00;;;9.90;99.90;;;;;;5035042;28;20050;-81
2023/04/01 01:31:54;;;;;;;0.00;0.00;;;9.90;99.90;;;;;;5018062;28;20472;-80
2023/04/01 01:34:54;;;;;;;0.00;0.00;;;9.90;99.90;;;;;;5036191;28;20054;-81
2023/04/01 01:37:24;;;;;;;0.00;0.00;;;9.90;99.90;;;;;;5035187;28;20140;-82
2023/04/01 01:39:59;;;;;;;0.00;0.00;;;9.90;99.90;;;;;;5034819;28;20084;-82
2023/04/01 01:42:27;;;;;;;0.00;0.00;;;9.90;99.90;;;;;;5035027;28;20523;-81
2023/04/01 01:44:55;;;;;;;0.10;0.10;;;9.90;99.90;;;;;;5035109;28;20084;-81
2023/04/01 01:47:23;;;;;;;0.00;0.00;;;9.90;99.90;;;;;;5034945;28;20053;-81
2023/04/01 01:49:50;;;;;;;0.00;0.00;;;9.90;99.90;;;;;;5035704;28;20373;-81
2023/04/01 01:52:18;;;;;;;0.00;0.00;;;9.90;99.90;;;;;;5034499;28;20038;-81
2023/04/01 01:54:54;;;;;;;0.00;0.00;;;9.90;99.90;;;;;;5035492;28;20131;-81
2023/04/01 01:57:28;;;;;;;0.00;0.00;;;9.90;99.90;;;;;;5034776;28;20087;-81
2023/04/01 02:00:01;;;;;;;0.00;0.00;;;9.80;99.90;;;;;;5034779;28;20045;-81
2023/04/01 02:02:31;;;;;;;0.00;0.00;;;9.90;99.90;;;;;;5034315;28;20050;-81
2023/04/01 02:04:57;;;;;;;0.00;0.00;;;9.90;99.90;;;;;;5033952;28;20060;-81
2023/04/01 02:07:33;;;;;;;0.00;0.00;;;9.90;99.90;;;;;;5034630;28;20044;-82
2023/04/01 02:09:59;;;;;;;0.00;0.00;;;9.80;99.90;;;;;;5034519;28;20060;-82
2023/04/01 02:12:26;;;;;;;0.08;0.00;;;9.90;99.90;;;;;;5018206;28;20049;-82
2023/04/01 02:15:10;;;;;;;0.00;0.00;;;9.80;99.90;;;;;;5018443;28;20053;-82
2023/04/01 02:17:42;;;;;;;0.00;0.00;;;9.90;99.90;;;;;;5034488;28;20071;-82
2023/04/01 02:20:20;;;;;;;0.00;0.00;;;9.80;99.90;;;;;;5018103;28;20062;-82
2023/04/01 02:22:56;;;;;;;0.00;0.00;;;9.80;99.90;;;;;;5035197;28;20110;-82
2023/04/01 02:25:26;;;;;;;0.00;0.00;;;9.80;99.90;;;;;;5034460;28;20199;-82
2023/04/01 02:27:53;;;;;;;0.00;0.00;;;9.80;99.90;;;;;;5034145;28;20049;-82
2023/04/01 02:30:19;;;;;;;0.00;0.00;;;9.80;99.90;;;;;;5017461;28;20049;-82
2023/04/01 02:32:47;;;;;;;0.20;0.20;;;9.90;99.90;;;;;;5018059;28;20041;-82
2023/04/01 02:35:15;;;;;;;0.10;0.00;;;9.90;99.90;;;;;;5034020;28;20103;-82
2023/04/01 02:37:43;;;;;;;0.00;0.00;;;9.90;99.90;;;;;;5034812;28;20081;-82
2023/04/01 02:40:12;;;;;;;0.00;0.00;;;9.90;99.90;;;;;;5034817;28;20053;-82
2023/04/01 02:42:38;;;;;;;0.00;0.00;;;9.90;99.90;;;;;;5033942;28;20057;-82
2023/04/01 02:45:06;;;;;;;0.00;0.00;;;9.90;99.90;;;;;;5033855;28;20123;-81
2023/04/01 02:47:31;;;;;;;0.03;0.03;;;9.90;99.90;;;;;;5033769;28;20137;-82
2023/04/01 02:49:58;;;;;;;0.00;0.00;;;9.80;99.90;;;;;;5017291;28;20136;-81
2023/04/01 02:52:28;;;;;;;0.22;0.22;;;9.90;99.90;;;;;;5033584;28;20046;-81
2023/04/01 02:54:55;;;;;;;0.00;0.00;;;9.90;99.90;;;;;;5033609;28;20081;-81
2023/04/01 02:57:21;;;;;;;0.00;0.00;;;9.90;99.90;;;;;;5017294;28;20112;-81
2023/04/01 02:59:47;;;;;;;0.00;0.00;;;9.90;99.90;;;;;;5034112;28;20045;-82
2023/04/01 03:02:13;;;;;;;0.00;0.00;;;9.90;99.90;;;;;;5034114;28;20374;-82
2023/04/01 03:04:39;;;;;;;0.00;0.00;;;9.90;99.90;;;;;;5033089;28;20061;-82
2023/04/01 03:07:05;;;;;;;0.00;0.00;;;9.90;99.90;;;;;;5017145;28;20052;-82
2023/04/01 03:09:31;;;;;;;0.00;0.00;;;9.90;99.90;;;;;;5033458;28;20045;-82
2023/04/01 03:11:56;;;;;;;0.00;0.00;;;9.90;99.90;;;;;;5033643;28;20048;-82
2023/04/01 03:14:22;;;;;;;0.00;0.00;;;9.90;99.90;;;;;;5033298;28;20060;-82
2023/04/01 03:16:48;;;;;;;0.00;0.00;;;9.90;99.90;;;;;;5016801;28;20091;-82
2023/04/01 03:19:13;;;;;;;0.00;0.00;;;9.90;99.90;;;;;;5000483;28;20096;-81
2023/04/01 03:21:39;;;;;;;0.00;0.00;;;9.90;99.90;;;;;;5016808;28;20053;-81
2023/04/01 03:24:06;;;;;;;0.00;0.00;;;9.90;99.90;;;;;;5016687;28;20042;-82
2023/04/01 03:26:31;;;;;;;0.00;0.00;;;9.90;99.90;;;;;;5017076;28;20346;-82
2023/04/01 03:28:57;;;;;;;0.00;0.00;;;9.90;99.90;;;;;;5033442;28;20048;-82
2023/04/01 03:31:23;;;;;;;0.00;0.00;;;9.90;99.90;;;;;;5016509;28;20455;-82
2023/04/01 03:33:49;;;;;;;0.00;0.00;;;9.90;99.90;;;;;;5032931;28;20095;-82
2023/04/01 03:36:15;;;;;;;0.00;0.00;;;9.90;99.90;;;;;;5032983;28;20108;-82
2023/04/01 03:38:41;;;;;;;0.00;0.00;;;9.90;99.90;;;;;;5032856;28;20503;-82
2023/04/01 03:41:07;;;;;;;0.00;0.00;;;9.90;99.90;;;;;;5032946;28;20059;-81
2023/04/01 03:43:33;;;;;;;0.00;0.00;;;9.90;99.90;;;;;;5034091;28;20053;-81
2023/04/01 03:45:59;;;;;;;0.00;0.00;;;9.90;99.90;;;;;;5032812;28;20092;-81
2023/04/01 03:48:25;;;;;;;0.00;0.00;;;9.90;99.90;;;;;;4999906;28;20084;-81
2023/04/01 03:50:51;;;;;;;0.00;0.00;;;9.90;99.90;;;;;;5032834;28;20194;-81
2023/04/01 03:53:17;;;;;;;0.00;0.00;;;9.90;99.90;;;;;;5032549;28;20092;-81
2023/04/01 03:55:43;;;;;;;0.00;0.00;;;9.90;99.90;;;;;;5032846;28;20057;-81
2023/04/01 03:58:09;;;;;;;0.00;0.00;;;9.90;99.90;;;;;;5032737;28;20500;-81
2023/04/01 04:00:34;;;;;;;0.00;0.00;;;9.90;99.90;;;;;;5015605;28;20108;-82
2023/04/01 04:03:00;;;;;;;0.00;0.00;;;10.00;99.90;;;;;;5033453;28;20124;-81
2023/04/01 04:05:26;;;;;;;0.00;0.00;;;9.90;99.90;;;;;;5031944;28;20490;-81
2023/04/01 04:07:52;;;;;;;0.00;0.00;;;9.90;99.90;;;;;;5032489;28;20046;-82
2023/04/01 04:10:18;;;;;;;0.00;0.00;;;9.90;99.90;;;;;;5032507;28;20164;-81
2023/04/01 04:12:44;;;;;;;0.00;0.00;;;9.90;99.90;;;;;;5016111;28;20052;-82
2023/04/01 04:15:10;;;;;;;0.00;0.00;;;9.90;99.90;;;;;;5016100;28;20060;-81
2023/04/01 04:17:36;;;;;;;0.00;0.00;;;9.90;99.90;;;;;;5032565;28;20132;-81
2023/04/01 04:20:03;;;;;;;0.10;0.10;;;9.90;99.90;;;;;;5032281;28;20470;-81
2023/04/01 04:22:28;;;;;;;0.00;0.00;;;9.90;99.90;;;;;;5033487;28;20042;-81
2023/04/01 04:24:54;;;;;;;0.00;0.00;;;9.90;99.90;;;;;;5015656;28;20413;-81
2023/04/01 04:27:20;;;;;;;0.00;0.00;;;9.90;99.90;;;;;;5015234;28;20079;-81
2023/04/01 04:29:46;;;;;;;0.00;0.00;;;9.90;99.90;;;;;;5031809;28;20052;-81
2023/04/01 04:32:11;;;;;;;0.00;0.00;;;9.90;99.90;;;;;;5032828;28;20045;-81
2023/04/01 04:34:37;;;;;;;0.00;0.00;;;9.90;99.90;;;;;;4999721;28;20046;-81
2023/04/01 04:37:03;;;;;;;0.00;0.00;;;9.90;99.90;;;;;;5015900;28;20081;-81
2023/04/01 04:39:29;;;;;;;0.00;0.00;;;9.90;99.90;;;;;;5032194;28;20048;-81
2023/04/01 04:41:55;;;;;;;0.00;0.00;;;9.90;99.90;;;;;;5032067;28;20493;-81
2023/04/01 04:44:20;;;;;;;0.00;0.00;;;10.00;99.90;;;;;;5015766;28;20050;-81
2023/04/01 04:46:46;;;;;;;0.00;0.00;;;10.00;99.90;;;;;;5015436;28;20451;-81
2023/04/01 04:49:12;;;;;;;0.00;0.00;;;9.90;99.90;;;;;;5015533;28;20603;-81
2023/04/01 04:51:38;;;;;;;0.00;0.00;;;10.00;99.90;;;;;;5032018;28;20045;-81
2023/04/01 04:54:04;;;;;;;0.00;0.00;;;10.00;99.90;;;;;;5015711;28;20068;-81
2023/04/01 04:56:30;;;;;;;0.00;0.00;;;9.90;99.90;;;;;;5035756;28;20104;-81
2023/04/01 04:58:56;;;;;;;18.77;1.35;;;9.90;99.90;;;;;;5035706;28;20046;-81
2023/04/01 05:01:22;;;;;;;0.25;0.10;;;9.90;99.90;;;;;;5002668;28;20041;-81
2023/04/01 05:03:48;;;;;;;0.00;0.00;;;9.90;99.90;;;;;;5035534;28;20056;-81
2023/04/01 05:06:15;;;;;;;0.00;0.00;;;9.90;99.90;;;;;;5035607;28;20404;-81
2023/04/01 05:08:42;;;;;;;0.00;0.00;;;9.90;99.90;;;;;;5035462;28;20429;-81
2023/04/01 05:11:12;;;;;;;0.00;0.00;;;9.90;99.90;;;;;;5035229;28;20049;-81
2023/04/01 05:13:38;;;;;;;0.15;0.15;;;10.00;99.90;;;;;;5035366;28;20095;-81
2023/04/01 05:16:07;;;;;;;0.00;0.00;;;10.00;99.90;;;;;;5035312;28;20041;-81
2023/04/01 05:18:32;;;;;;;0.00;0.00;;;10.00;99.90;;;;;;5035147;28;20056;-81
2023/04/01 05:20:58;;;;;;;0.00;0.00;;;10.00;99.90;;;;;;5002560;28;20049;-81
2023/04/01 05:23:24;;;;;;;0.00;0.00;;;10.00;99.90;;;;;;5035384;28;20100;-81
2023/04/01 05:25:52;;;;;;;0.63;0.15;;;10.00;99.90;;;;;;5035390;28;20084;-81
2023/04/01 05:28:19;;;;;;;0.00;0.00;;;9.90;99.90;;;;;;5035477;28;20099;-81
2023/04/01 05:30:45;;;;;;;0.00;0.00;;;10.00;99.90;;;;;;5018250;28;20136;-81
2023/04/01 05:33:12;;;;;;;0.17;0.00;;;10.00;99.90;;;;;;5018101;28;20080;-80
2023/04/01 05:35:40;;;;;;;0.00;0.00;;;9.90;99.90;;;;;;5018648;28;20123;-80
2023/04/01 05:38:05;;;;;;;0.10;0.10;;;10.00;99.90;;;;;;5035153;28;20088;-81
2023/04/01 05:40:32;;;;;;;0.00;0.00;;;10.00;99.90;;;;;;5018696;28;20449;-80
2023/04/01 05:42:58;;;;;;;1.00;0.32;;;10.00;99.90;;;;;;5018341;28;20508;-81
2023/04/01 05:45:24;;;;;;;0.00;0.00;;;10.00;99.90;;;;;;5035005;28;20152;-81
2023/04/01 05:47:50;;;;;;;0.52;0.00;;;10.00;99.90;;;;;;5035027;28;20136;-81
2023/04/01 05:50:16;;;;;;;0.00;0.00;;;10.00;99.90;;;;;;5034606;28;20049;-85
2023/04/01 05:52:42;;;;;;;0.30;0.10;;;10.00;99.90;;;;;;5018109;28;20068;-82
2023/04/01 05:55:08;;;;;;;0.00;0.00;;;10.00;99.90;;;;;;5018301;28;20053;-82
2023/04/01 05:57:34;;;;;;;0.00;0.00;;;10.00;99.90;;;;;;5018227;28;20045;-81
2023/04/01 05:59:59;;;;;;;0.00;0.00;;;10.00;99.90;;;;;;5001867;28;20056;-81
2023/04/01 06:02:25;;;;;;;0.00;0.00;;;10.00;99.90;;;;;;5034015;28;20085;-81
2023/04/01 06:05:10;;;;;;;0.00;0.00;;;10.00;99.90;;;;;;5017655;28;20049;-81
2023/04/01 06:07:41;;;;;;;0.08;0.08;;;10.00;99.90;;;;;;5018508;28;20054;-80
2023/04/01 06:10:17;;;;;;;0.00;0.00;;;10.00;99.90;;;;;;5018015;28;20488;-81
2023/04/01 06:12:56;;;;;;;0.00;0.00;;;10.10;99.90;;;;;;5017591;28;20057;-81
2023/04/01 06:15:22;;;;;;;0.00;0.00;;;10.10;99.90;;;;;;5034572;28;20045;-81
2023/04/01 06:18:19;;;;;;;1.35;0.28;;;10.10;99.90;;;;;;5017893;28;20131;-81
2023/04/01 06:20:56;;;;;;;0.20;0.20;;;10.10;99.90;;;;;;5034336;28;20365;-80
2023/04/01 06:23:49;;;;;;;0.00;0.00;;;10.10;99.90;;;;;;5034195;28;20046;-81
2023/04/01 06:26:24;;;;;;;0.00;0.00;;;10.20;99.90;;;;;;5034832;28;20073;-81
2023/04/01 06:28:59;;;;;;;0.30;0.00;;;10.10;99.90;;;;;;5034344;28;20045;-81
2023/04/01 06:31:54;;;;;;;0.00;0.00;;;10.10;99.90;;;;;;5033707;28;20049;-83
2023/04/01 06:34:25;;;;;;;1.67;0.45;;;10.10;99.90;;;;;;5000569;28;20064;-82
2023/04/01 06:37:15;;;;;;;0.00;0.00;;;10.10;99.90;;;;;;5034050;28;20092;-83
2023/04/01 06:39:41;;;;;;;0.00;0.00;;;10.20;99.90;;;;;;5017349;28;20049;-81
2023/04/01 06:42:24;;;;;;;0.00;0.00;;;10.10;99.90;;;;;;5017566;28;20052;-81
2023/04/01 06:45:08;;;;;;;0.00;0.00;;;10.10;99.90;;;;;;5034168;28;20053;-81
2023/04/01 06:47:51;;;;;;;0.03;0.00;;;10.10;99.90;;;;;;5017671;28;20045;-81
2023/04/01 06:50:20;;;;;;;0.00;0.00;;;10.10;99.90;;;;;;5034256;28;20049;-82
2023/04/01 06:53:10;;;;;;;0.00;0.00;;;10.20;99.90;;;;;;5016893;28;20405;-80
2023/04/01 06:55:45;;;;;;;0.00;0.00;;;10.20;99.90;;;;;;5033929;28;20047;-80
2023/04/01 06:58:34;;;;;;;0.00;0.00;;;10.20;99.90;;;;;;5033809;28;20080;-81
2023/04/01 07:01:23;;;;;;;0.00;0.00;;;10.20;99.90;;;;;;5016867;28;20399;-80
2023/04/01 07:04:14;;;;;;;0.22;0.08;;;10.20;99.90;;;;;;5017208;28;20061;-81
2023/04/01 07:07:17;;;;;;;0.00;0.00;;;10.20;99.90;;;;;;5033448;28;20084;-81
2023/04/01 07:09:53;;;;;;;0.00;0.00;;;10.20;99.90;;;;;;5030941;28;20518;-81
2023/04/01 07:12:33;;;;;;;0.00;0.00;;;10.20;99.90;;;;;;5034221;28;20056;-82
2023/04/01 07:15:12;;;;;;;0.00;0.00;;;10.20;99.90;;;;;;5034467;28;20080;-81
2023/04/01 07:17:40;;;;;;;0.00;0.00;;;10.30;99.90;;;;;;5016258;28;20087;-81
2023/04/01 07:20:19;;;;;;;0.00;0.00;;;10.30;99.90;;;;;;5033362;28;20064;-81
2023/04/01 07:22:56;;;;;;;0.00;0.00;;;10.30;99.90;;;;;;5017104;28;20046;-81
2023/04/01 07:25:35;;;;;;;0.00;0.00;;;10.30;99.90;;;;;;5016760;28;20049;-81
2023/04/01 07:28:10;;;;;;;0.00;0.00;;;10.30;99.90;;;;;;5033146;28;20052;-81
2023/04/01 07:31:18;;;;;;;0.05;0.00;;;10.40;99.90;;;;;;5016335;28;20050;-85
2023/04/01 07:33:58;;;;;;;0.00;0.00;;;10.40;99.90;;;;;;5016638;28;20049;-81
2023/04/01 07:36:43;;;;;;;0.00;0.00;;;10.40;99.90;;;;;;5016052;28;20409;-82
2023/04/01 07:39:34;;;;;;;2.45;0.10;;;10.40;99.90;;;;;;5016547;28;20057;-81
2023/04/01 07:42:28;;;;;;;0.00;0.00;;;10.50;99.90;;;;;;5016339;28;20111;-81
2023/04/01 07:45:11;;;;;;;0.00;0.00;;;10.50;99.90;;;;;;5016012;28;20060;-81
2023/04/01 07:48:02;;;;;;;0.00;0.00;;;10.50;99.90;;;;;;5032624;28;20049;-81
2023/04/01 07:50:41;;;;;;;0.00;0.00;;;10.50;99.90;;;;;;5032616;28;20400;-81
2023/04/01 07:53:20;;;;;;;0.00;0.00;;;10.50;99.90;;;;;;5032521;28;20375;-81
2023/04/01 07:56:01;;;;;;;0.30;0.10;;;10.50;99.90;;;;;;5016285;28;20054;-81
2023/04/01 07:59:04;;;;;;;0.00;0.00;;;10.50;99.90;;;;;;5016327;28;20623;-81
2023/04/01 08:01:37;;;;;;;0.10;0.10;;;10.50;99.90;;;;;;5031970;28;20052;-81
2023/04/01 08:04:15;;;;;;;0.00;0.00;;;10.60;99.90;;;;;;5032664;28;20057;-81
2023/04/01 08:07:09;;;;;;;0.35;0.00;;;10.60;99.90;;;;;;5016055;28;20492;-81
2023/04/01 08:10:00;;;;;;;0.03;0.03;;;10.60;99.90;;;;;;5032665;28;20041;-82
2023/04/01 08:12:43;;;;;;;0.00;0.00;;;10.60;99.90;;;;;;5032939;28;20128;-81
2023/04/01 08:15:21;;;;;;;0.55;0.30;;;10.60;99.90;;;;;;5016189;28;20188;-81
2023/04/01 08:18:07;;;;;;;1.38;0.13;;;10.60;99.90;;;;;;5016069;28;20049;-81
2023/04/01 08:20:50;;;;;;;0.00;0.00;;;10.60;99.90;;;;;;5033946;28;20045;-81
2023/04/01 08:23:18;;;;;;;0.57;0.25;;;10.60;99.90;;;;;;5032869;28;20060;-81
2023/04/01 08:25:58;;;;;;;0.08;0.08;;;10.60;99.90;;;;;;5016346;28;20057;-81
2023/04/01 08:28:29;;;;;;;0.20;0.20;;;10.70;99.90;;;;;;5033532;28;20049;-81
2023/04/01 08:31:03;;;;;;;0.05;0.05;;;10.70;99.90;;;;;;5035406;28;20045;-81
2023/04/01 08:33:31;;;;;;;1.17;0.28;;;10.80;99.90;;;;;;5036198;28;20037;-81
2023/04/01 08:36:09;;;;;;;0.03;0.03;;;10.70;99.90;;;;;;5020549;28;20096;-81
2023/04/01 08:38:40;;;;;;;0.00;0.00;;;10.70;99.90;;;;;;5037201;28;20372;-81
2023/04/01 08:41:30;;;;;;;0.10;0.08;;;10.70;99.90;;;;;;5019683;28;20440;-81
2023/04/01 08:44:21;;;;;;;0.10;0.10;;;10.80;99.90;;;;;;5036123;28;20548;-81
2023/04/01 08:47:01;;;;;;;0.43;0.43;;;10.80;99.90;;;;;;5035967;28;20045;-81
2023/04/01 08:49:42;;;;;;;0.55;0.20;;;10.80;99.90;;;;;;5035984;28;20060;-82
2023/04/01 08:52:10;;;;;;;0.47;0.40;;;10.80;99.90;;;;;;5019218;28;20045;-81
2023/04/01 08:54:47;;;;;;;0.03;0.03;;;10.80;99.90;;;;;;5019515;28;20050;-81
2023/04/01 08:57:25;;;;;;;0.77;0.03;;;10.90;99.90;;;;;;5037007;28;20046;-80
2023/04/01 08:59:56;;;;;;;0.80;0.00;;;10.90;99.90;;;;;;5035833;28;20045;-81
2023/04/01 09:02:44;;;;;;;0.00;0.00;;;11.00;99.90;;;;;;5035411;28;20087;-81
2023/04/01 09:05:29;;;;;;;0.28;0.08;;;11.00;99.90;;;;;;5035153;28;20053;-81
2023/04/01 09:08:06;;;;;;;0.40;0.30;;;11.00;99.90;;;;;;5019018;28;20136;-80
2023/04/01 09:10:45;;;;;;;0.08;0.00;;;11.00;99.90;;;;;;5018925;28;20508;-81
2023/04/01 09:13:23;;;;;;;0.00;0.00;;;11.00;99.90;;;;;;5035434;28;20049;-81
2023/04/01 09:16:15;;;;;;;0.00;0.00;;;11.10;99.90;;;;;;5035720;28;20055;-80
2023/04/01 09:19:09;;;;;;;0.00;0.00;;;11.10;99.90;;;;;;5036566;28;20049;-81
2023/04/01 09:21:45;;;;;;;0.00;0.00;;;11.30;99.90;;;;;;5035124;28;20092;-80
2023/04/01 09:24:45;;;;;;;0.00;0.00;;;11.40;99.90;;;;;;5035555;28;20042;-81
2023/04/01 09:27:41;;;;;;;0.00;0.00;;;11.70;99.90;;;;;;5035088;28;20107;-80
2023/04/01 09:30:32;;;;;;;0.00;0.00;;;12.10;99.90;;;;;;5027303;28;20064;-80
2023/04/01 09:33:25;;;;;;;0.00;0.00;;;12.10;99.90;;;;;;5034606;28;20049;-80
2023/04/01 09:36:17;;;;;;;0.00;0.00;;;12.00;99.90;;;;;;5035135;28;20128;-80
2023/04/01 09:38:58;;;;;;;0.00;0.00;;;11.80;99.90;;;;;;5008245;28;20057;-80
2023/04/01 09:41:32;;;;;;;0.00;0.00;;;11.80;99.90;;;;;;5034013;28;20486;-80
2023/04/01 09:44:31;;;;;;;0.00;0.00;;;11.70;99.90;;;;;;5035101;28;20081;-81
2023/04/01 09:47:30;;;;;;;0.00;0.00;;;11.70;99.90;;;;;;5035885;28;20045;-80
2023/04/01 09:50:27;;;;;;;0.00;0.00;;;11.70;99.90;;;;;;5018211;28;20052;-86
2023/04/01 09:53:30;;;;;;;0.00;0.00;;;11.70;99.90;;;;;;5034804;28;20041;-86
2023/04/01 09:56:23;;;;;;;0.00;0.00;;;11.70;99.90;;;;;;5012939;28;20571;-87
2023/04/01 09:59:08;;;;;;;0.00;0.00;;;11.60;99.90;;;;;;5034961;28;20045;-81
2023/04/01 10:01:45;;;;;;;0.00;0.00;;;11.50;99.90;;;;;;5017788;28;20057;-84
2023/04/01 10:04:50;;;;;;;0.00;0.00;;;11.50;99.90;;;;;;5034904;28;20064;-88
2023/04/01 10:07:44;;;;;;;0.10;0.00;;;11.50;99.90;;;;;;5018709;28;20112;-84
2023/04/01 10:10:34;;;;;;;0.00;0.00;;;11.60;99.90;;;;;;5019244;28;20076;-88
2023/04/01 10:13:34;;;;;;;0.03;0.00;;;11.60;99.90;;;;;;5018043;28;20041;-84
2023/04/01 10:16:15;;;;;;;0.10;0.08;;;11.70;99.90;;;;;;5018378;28;20477;-85
2023/04/01 10:19:36;;;;;;;0.63;0.15;;;11.70;99.90;;;;;;5018317;28;20050;-84
2023/04/01 10:22:17;;;;;;;0.70;0.40;;;11.80;99.90;;;;;;4923411;29;20101;-85
2023/04/01 10:24:57;;;;;;;0.00;0.00;;;11.80;99.90;;;;;;5023934;28;20404;-85
2023/04/01 10:28:01;;;;;;;0.08;0.08;;;11.80;99.90;;;;;;5034465;28;20047;-84
2023/04/01 10:30:29;;;;;;;0.00;0.00;;;11.80;99.90;;;;;;5017687;28;20561;-84
2023/04/01 10:33:16;;;;;;;0.00;0.00;;;11.90;99.90;;;;;;5017370;28;20087;-89
2023/04/01 10:36:19;;;;;;;0.00;0.00;;;12.00;99.90;;;;;;5017854;28;20396;-83
2023/04/01 10:39:40;;;;;;;0.20;0.08;;;12.00;99.90;;;;;;5034143;28;20091;-88
2023/04/01 10:42:38;;;;;;;0.10;0.00;;;12.00;99.90;;;;;;5008911;28;20053;-84
2023/04/01 10:45:12;;;;;;;0.00;0.00;;;12.10;99.90;;;;;;5017285;28;20092;-83
2023/04/01 10:48:02;;;;;;;0.00;0.00;;;12.10;99.90;;;;;;5017641;28;20050;-86
2023/04/01 10:50:55;;;;;;;0.00;0.00;;;12.20;99.90;;;;;;5017171;28;20065;-85
2023/04/01 10:53:52;;;;;;;0.32;0.32;;;12.20;99.90;;;;;;5035493;28;20067;-95
2023/04/01 10:56:44;;;;;;;0.52;0.30;;;12.20;99.90;;;;;;5033584;28;20057;-86
2023/04/01 10:59:41;;;;;;;0.00;0.00;;;12.20;99.90;;;;;;5034053;28;20092;-84
2023/04/01 11:02:27;;;;;;;0.00;0.00;;;12.20;99.90;;;;;;5033256;28;20046;-85
2023/04/01 11:05:02;;;;;;;0.00;0.00;;;12.30;99.90;;;;;;5033303;28;20081;-84
2023/04/01 11:07:54;;;;;;;0.00;0.00;;;12.30;99.90;;;;;;5017368;28;20136;-86
2023/04/01 11:11:00;;;;;;;0.00;0.00;;;12.30;99.90;;;;;;5019673;28;20081;-86
2023/04/01 11:13:26;;;;;;;4.97;0.70;;;12.20;99.90;;;;;;5033518;28;20068;-85
2023/04/01 11:16:26;;;;;;;0.00;0.00;;;12.20;99.90;;;;;;5033524;28;20049;-84
2023/04/01 11:19:13;;;;;;;0.10;0.10;;;12.10;99.90;;;;;;5034579;28;20079;-88
2023/04/01 11:21:58;;;;;;;0.32;0.20;;;12.10;99.90;;;;;;5033704;28;20041;-83
2023/04/01 11:24:41;;;;;;;0.00;0.00;;;12.10;99.90;;;;;;5035391;28;20056;-84
2023/04/01 11:27:22;;;;;;;0.00;0.00;;;12.10;99.90;;;;;;5033834;28;20409;-85
2023/04/01 11:30:00;;;;;;;0.28;0.00;;;12.20;99.90;;;;;;5018807;28;20054;-87
2023/04/01 11:32:53;;;;;;;0.00;0.00;;;12.10;99.90;;;;;;5021633;28;20045;-88
2023/04/01 11:35:25;;;;;;;0.00;0.00;;;12.20;99.90;;;;;;5020765;28;20045;-90
2023/04/01 11:38:16;;;;;;;0.20;0.03;;;12.30;99.90;;;;;;5029456;28;20060;-88
2023/04/01 11:40:54;;;;;;;0.00;0.00;;;12.40;99.90;;;;;;5035615;28;20053;-89
2023/04/01 11:43:36;;;;;;;0.00;0.00;;;12.40;99.90;;;;;;5022489;28;20073;-89
2023/04/01 11:46:15;;;;;;;0.08;0.00;;;12.40;99.90;;;;;;5019132;28;20045;-87
2023/04/01 11:49:06;;;;;;;0.40;0.20;;;12.40;99.90;;;;;;5035730;28;20084;-86
2023/04/01 11:51:46;;;;;;;0.00;0.00;;;12.40;99.90;;;;;;5038613;28;20041;-92
2023/04/01 11:54:41;;;;;;;0.00;0.00;;;12.30;99.90;;;;;;5019660;28;20489;-85
2023/04/01 11:57:38;;;;;;;0.00;0.00;;;12.30;99.90;;;;;;5017901;28;20110;-88
2023/04/01 12:00:05;;;;;;;0.00;0.00;;;12.20;99.90;;;;;;5017508;28;20092;-84
2023/04/01 12:02:59;;;;;;;0.10;0.00;;;12.10;99.90;;;;;;5032245;28;20053;-88
2023/04/01 12:05:37;;;;;;;0.22;0.20;;;12.00;99.90;;;;;;5015341;28;20053;-83
2023/04/01 12:08:12;;;;;;;2.42;0.00;;;11.90;99.90;;;;;;5032650;28;20045;-84
2023/04/01 12:10:41;;;;;;;0.00;0.00;;;11.80;99.90;;;;;;5032581;28;20089;-82
2023/04/01 12:13:07;;;;;;;0.00;0.00;;;11.80;99.90;;;;;;5032563;28;20051;-81
2023/04/01 12:16:10;;;;;;;0.13;0.00;;;11.80;99.90;;;;;;5016056;28;20128;-82
2023/04/01 12:18:49;;;;;;;0.00;0.00;;;11.80;99.90;;;;;;5032839;28;20041;-82
2023/04/01 12:21:35;;;;;;;0.00;0.00;;;11.70;99.90;;;;;;5032380;28;20050;-81
2023/04/01 12:24:29;;;;;;;0.00;0.00;;;11.70;99.90;;;;;;5032252;28;20485;-82
2023/04/01 12:27:31;;;;;;;0.00;0.00;;;11.60;99.90;;;;;;5032423;28;20046;-81
2023/04/01 12:30:13;;;;;;;0.35;0.08;;;11.50;99.90;;;;;;5016778;28;20068;-83
2023/04/01 12:32:53;;;;;;;0.00;0.00;;;11.40;99.90;;;;;;5031734;28;20046;-83
2023/04/01 12:35:43;;;;;;;0.00;0.00;;;11.40;99.90;;;;;;5032537;28;20150;-83
2023/04/01 12:38:50;;;;;;;0.30;0.10;;;11.40;99.90;;;;;;5032634;28;20088;-83
2023/04/01 12:41:37;;;;;;;0.00;0.00;;;11.40;99.90;;;;;;5015634;28;20053;-83
2023/04/01 12:44:27;;;;;;;0.10;0.10;;;11.40;99.90;;;;;;5016247;28;20057;-82
2023/04/01 12:47:21;;;;;;;0.00;0.00;;;11.40;99.90;;;;;;5032148;28;20442;-82
2023/04/01 12:49:56;;;;;;;0.00;0.00;;;11.40;99.90;;;;;;5033069;28;20064;-81
2023/04/01 12:52:22;;;;;;;0.00;0.00;;;11.40;99.90;;;;;;5032030;28;20124;-81
2023/04/01 12:55:00;;;;;;;0.30;0.05;;;11.40;99.90;;;;;;5032135;28;20544;-82
2023/04/01 12:57:47;;;;;;;0.00;0.00;;;11.30;99.90;;;;;;5032480;28;20049;-81
2023/04/01 13:00:50;;;;;;;0.00;0.00;;;11.30;99.90;;;;;;5032286;28;20049;-84
2023/04/01 13:03:39;;;;;;;0.00;0.00;;;11.30;99.90;;;;;;5031948;28;20140;-82
2023/04/01 13:06:24;;;;;;;0.10;0.10;;;11.30;99.90;;;;;;5031909;28;20482;-81
2023/04/01 13:08:59;;;;;;;0.00;0.00;;;11.20;99.90;;;;;;5015544;28;20049;-81
2023/04/01 13:11:34;;;;;;;;;;;11.10;99.90;;;;;;5015911;28;20056;-81
2023/04/01 13:14:00;;;;;;;0.00;0.00;;;11.10;99.90;;;;;;5031879;28;19925;-84
2023/04/01 13:17:03;;;;;;;0.30;0.00;;;11.10;99.90;;;;;;5032508;28;20144;-81
2023/04/01 13:19:47;;;;;;;0.32;0.20;;;11.10;99.90;;;;;;5035530;28;20081;-80
2023/04/01 13:22:39;;;;;;;0.00;0.00;;;11.10;99.90;;;;;;5018914;28;20132;-81
2023/04/01 13:25:20;;;;;;;0.00;0.00;;;11.00;99.90;;;;;;5035136;28;20057;-80
2023/04/01 13:27:51;;;;;;;0.00;0.00;;;10.90;99.90;;;;;;5035449;28;20067;-81
2023/04/01 13:31:01;;;;;;;0.00;0.00;;;10.90;99.90;;;;;;5019047;28;20049;-91
2023/04/01 13:33:50;;;;;;;0.00;0.00;;;10.80;99.90;;;;;;4958622;28;20105;-86
2023/04/01 13:36:21;;;;;;;0.10;0.00;;;10.80;99.90;;;;;;4943579;28;20051;-82
2023/04/01 13:39:11;;;;;;;1.20;0.00;;;10.70;99.90;;;;;;4991474;28;20501;-83
2023/04/01 13:41:49;;;;;;;0.00;0.00;;;10.60;99.90;;;;;;5018400;28;20397;-81